createdAt,value
2022-09-01T00:01:49.659Z,17.40
2022-09-01T00:04:20.787Z,17.42
2022-09-01T00:06:48.437Z,17.39
2022-09-01T00:09:18.161Z,17.40
2022-09-01T00:11:50.602Z,17.38
2022-09-01T00:14:29.634Z,17.27
2022-09-01T00:17:01.167Z,17.37
2022-09-01T00:19:29.485Z,17.37
2022-09-01T00:21:56.467Z,17.30
2022-09-01T00:24:22.991Z,17.35
2022-09-01T00:26:49.397Z,17.32
2022-09-01T00:29:16.150Z,17.32
2022-09-01T00:31:42.776Z,17.30
2022-09-01T00:34:09.414Z,17.26
2022-09-01T00:36:35.869Z,17.25
2022-09-01T00:39:03.528Z,17.25
2022-09-01T00:41:32.782Z,17.27
2022-09-01T00:44:05.334Z,17.27
2022-09-01T00:46:36.504Z,17.26
2022-09-01T00:49:16.025Z,17.27
2022-09-01T00:51:47.815Z,17.27
2022-09-01T00:54:20.020Z,17.26
2022-09-01T00:56:57.317Z,17.29
2022-09-01T00:59:26.386Z,17.28
2022-09-01T01:01:53.376Z,17.13
2022-09-01T01:04:20.136Z,17.19
2022-09-01T01:06:58.630Z,17.21
2022-09-01T01:09:26.782Z,17.16
2022-09-01T01:11:53.533Z,17.03
2022-09-01T01:14:20.099Z,17.12
2022-09-01T01:16:50.678Z,17.06
2022-09-01T01:19:44.093Z,17.01
2022-09-01T01:22:36.636Z,16.98
2022-09-01T01:25:03.477Z,16.95
2022-09-01T01:27:34.806Z,16.93
2022-09-01T01:30:12.483Z,16.94
2022-09-01T01:32:43.099Z,16.95
2022-09-01T01:35:14.748Z,16.95
2022-09-01T01:37:48.747Z,16.92
2022-09-01T01:40:17.983Z,16.91
2022-09-01T01:42:50.801Z,16.92
2022-09-01T01:45:19.952Z,16.91
2022-09-01T01:47:53.047Z,16.92
2022-09-01T01:50:25.728Z,16.93
2022-09-01T01:52:58.128Z,16.87
2022-09-01T01:55:28.598Z,16.96
2022-09-01T01:57:56.207Z,16.97
2022-09-01T02:00:30.443Z,17.00
2022-09-01T02:02:57.991Z,17.01
2022-09-01T02:05:32.063Z,16.98
2022-09-01T02:08:03.933Z,16.99
2022-09-01T02:10:38.909Z,16.99
2022-09-01T02:13:07.546Z,16.99
2022-09-01T02:15:44.079Z,17.00
2022-09-01T02:18:14.154Z,16.99
2022-09-01T02:20:41.864Z,16.97
2022-09-01T02:23:11.502Z,16.96
2022-09-01T02:25:59.068Z,16.85
2022-09-01T02:28:27.658Z,16.95
2022-09-01T02:30:57.867Z,16.96
2022-09-01T02:33:25.283Z,16.93
2022-09-01T02:35:55.104Z,16.91
2022-09-01T02:38:23.884Z,16.89
2022-09-01T02:40:50.324Z,16.86
2022-09-01T02:43:20.265Z,16.86
2022-09-01T02:45:55.551Z,16.84
2022-09-01T02:48:32.857Z,16.83
2022-09-01T02:51:02.010Z,16.80
2022-09-01T02:53:34.164Z,16.78
2022-09-01T02:56:09.319Z,16.77
2022-09-01T02:58:45.625Z,16.72
2022-09-01T03:01:24.828Z,16.70
2022-09-01T03:03:55.617Z,16.67
2022-09-01T03:06:24.171Z,16.66
2022-09-01T03:08:53.039Z,16.62
2022-09-01T03:11:19.912Z,16.62
2022-09-01T03:13:46.705Z,16.61
2022-09-01T03:16:13.343Z,16.55
2022-09-01T03:18:40.242Z,16.38
2022-09-01T03:21:08.316Z,16.42
2022-09-01T03:23:38.003Z,16.36
2022-09-01T03:26:04.708Z,16.29
2022-09-01T03:28:31.878Z,16.24
2022-09-01T03:30:59.069Z,16.15
2022-09-01T03:33:27.619Z,15.96
2022-09-01T03:35:54.975Z,16.05
2022-09-01T03:38:24.057Z,15.97
2022-09-01T03:40:52.978Z,15.90
2022-09-01T03:43:23.404Z,15.82
2022-09-01T03:45:49.858Z,15.74
2022-09-01T03:48:17.053Z,15.69
2022-09-01T03:50:46.276Z,15.66
2022-09-01T03:53:19.989Z,15.59
2022-09-01T03:55:47.949Z,15.48
2022-09-01T03:58:18.930Z,15.50
2022-09-01T04:00:55.319Z,15.54
2022-09-01T04:03:28.937Z,15.48
2022-09-01T04:05:56.420Z,15.44
2022-09-01T04:08:32.412Z,15.29
2022-09-01T04:11:03.690Z,15.39
2022-09-01T04:13:35.397Z,15.24
2022-09-01T04:16:02.202Z,15.28
2022-09-01T04:18:30.148Z,15.00
2022-09-01T04:20:59.339Z,15.27
2022-09-01T04:23:33.506Z,15.22
2022-09-01T04:26:08.757Z,15.17
2022-09-01T04:28:39.088Z,15.07
2022-09-01T04:31:09.204Z,14.86
2022-09-01T04:33:39.794Z,14.94
2022-09-01T04:36:15.080Z,14.90
2022-09-01T04:38:41.427Z,14.85
2022-09-01T04:41:09.390Z,14.78
2022-09-01T04:43:36.117Z,14.79
2022-09-01T04:46:03.300Z,14.66
2022-09-01T04:48:31.656Z,14.78
2022-09-01T04:50:58.652Z,14.77
2022-09-01T04:53:25.012Z,14.76
2022-09-01T04:55:55.137Z,14.69
2022-09-01T04:58:22.124Z,14.76
2022-09-01T05:00:52.149Z,14.74
2022-09-01T05:03:21.442Z,14.73
2022-09-01T05:05:47.795Z,14.73
2022-09-01T05:08:23.499Z,14.74
2022-09-01T05:10:55.381Z,14.75
2022-09-01T05:13:23.509Z,14.73
2022-09-01T05:16:05.970Z,14.76
2022-09-01T05:18:32.824Z,14.80
2022-09-01T05:21:09.710Z,14.82
2022-09-01T05:23:37.382Z,14.83
2022-09-01T05:26:06.239Z,14.82
2022-09-01T05:28:32.772Z,14.76
2022-09-01T05:31:00.971Z,14.73
2022-09-01T05:33:27.585Z,14.79
2022-09-01T05:35:56.939Z,14.80
2022-09-01T05:38:25.656Z,14.76
2022-09-01T05:41:03.670Z,14.75
2022-09-01T05:43:31.501Z,14.78
2022-09-01T05:46:06.579Z,14.83
2022-09-01T05:48:39.549Z,14.89
2022-09-01T05:51:22.432Z,14.89
2022-09-01T05:53:59.205Z,14.89
2022-09-01T05:56:31.004Z,14.83
2022-09-01T06:01:50.463Z,15.02
2022-09-01T06:04:18.031Z,15.01
2022-09-01T06:07:05.298Z,15.00
2022-09-01T06:09:36.671Z,15.02
2022-09-01T06:12:03.326Z,15.11
2022-09-01T06:14:29.672Z,15.13
2022-09-01T06:16:56.286Z,15.18
2022-09-01T06:19:22.787Z,15.21
2022-09-01T06:21:49.158Z,15.24
2022-09-01T06:24:15.544Z,15.36
2022-09-01T06:26:42.166Z,15.40
2022-09-01T06:29:15.181Z,15.56
2022-09-01T06:31:42.494Z,15.67
2022-09-01T06:34:13.848Z,15.85
2022-09-01T06:36:40.638Z,16.00
2022-09-01T06:39:08.361Z,16.09
2022-09-01T06:41:37.779Z,16.17
2022-09-01T06:44:04.209Z,16.25
2022-09-01T06:46:31.788Z,16.38
2022-09-01T06:48:59.026Z,16.46
2022-09-01T06:51:29.235Z,16.63
2022-09-01T06:53:59.826Z,16.77
2022-09-01T06:56:32.024Z,16.86
2022-09-01T06:58:59.964Z,17.02
2022-09-01T07:01:27.594Z,17.12
2022-09-01T07:03:57.176Z,17.19
2022-09-01T07:09:22.260Z,17.49
2022-09-01T07:12:25.373Z,17.58
2022-09-01T07:17:36.562Z,17.78
2022-09-01T07:23:07.149Z,17.92
2022-09-01T07:26:01.054Z,18.02
2022-09-01T07:28:36.058Z,18.15
2022-09-01T07:33:55.681Z,18.34
2022-09-01T07:45:27.699Z,18.67
2022-09-01T07:47:55.176Z,18.79
2022-09-01T07:53:12.489Z,18.91
2022-09-01T07:55:44.178Z,19.01
2022-09-01T07:58:11.862Z,19.10
2022-09-01T08:00:40.254Z,19.22
2022-09-01T08:03:06.981Z,19.31
2022-09-01T08:05:33.852Z,19.40
2022-09-01T08:08:01.120Z,19.46
2022-09-01T08:10:28.571Z,19.55
2022-09-01T08:12:56.992Z,19.66
2022-09-01T08:15:41.680Z,19.67
2022-09-01T08:18:14.337Z,19.75
2022-09-01T08:20:45.525Z,19.85
2022-09-01T08:23:14.856Z,19.91
2022-09-01T08:25:44.677Z,20.05
2022-09-01T08:28:13.863Z,20.15
2022-09-01T08:30:42.322Z,20.27
2022-09-01T08:33:18.662Z,20.31
2022-09-01T08:35:47.941Z,20.37
2022-09-01T08:38:14.933Z,20.42
2022-09-01T08:40:43.481Z,20.53
2022-09-01T08:43:24.979Z,20.70
2022-09-01T08:45:57.894Z,20.86
2022-09-01T08:49:23.735Z,20.98
2022-09-01T08:51:32.557Z,21.20
2022-09-01T08:54:03.110Z,21.49
2022-09-01T08:56:30.715Z,21.75
2022-09-01T09:01:58.527Z,22.02
2022-09-01T09:04:47.403Z,22.16
2022-09-01T09:07:32.597Z,22.51
2022-09-01T09:10:10.603Z,22.92
2022-09-01T09:13:00.575Z,23.22
2022-09-01T09:16:07.325Z,23.64
2022-09-01T09:18:56.911Z,23.82
2022-09-01T09:21:34.242Z,24.15
2022-09-01T09:24:06.166Z,24.04
2022-09-01T09:26:48.314Z,24.34
2022-09-01T09:29:14.853Z,24.80
2022-09-01T09:31:49.913Z,25.27
2022-09-01T09:34:32.459Z,25.81
2022-09-01T09:37:31.344Z,26.31
2022-09-01T09:40:18.219Z,26.74
2022-09-01T09:42:54.018Z,27.30
2022-09-01T09:45:27.552Z,27.76
2022-09-01T09:47:55.919Z,28.16
2022-09-01T09:50:30.569Z,28.38
2022-09-01T09:53:27.925Z,28.41
2022-09-01T09:56:16.348Z,28.73
2022-09-01T09:58:46.521Z,29.23
2022-09-01T10:01:30.704Z,28.08
2022-09-01T10:04:01.589Z,27.90
2022-09-01T10:06:42.001Z,27.79
2022-09-01T10:09:33.101Z,28.00
2022-09-01T10:12:02.024Z,27.08
2022-09-01T10:14:52.014Z,26.56
2022-09-01T10:17:43.569Z,27.23
2022-09-01T10:20:18.626Z,27.90
2022-09-01T10:22:45.141Z,28.52
2022-09-01T10:25:17.959Z,29.14
2022-09-01T10:27:50.077Z,29.68
2022-09-01T10:30:20.113Z,29.84
2022-09-01T10:32:55.950Z,30.26
2022-09-01T10:35:31.457Z,31.22
2022-09-01T10:38:00.036Z,31.95
2022-09-01T10:40:31.031Z,32.54
2022-09-01T10:43:23.443Z,33.18
2022-09-01T10:45:56.046Z,33.13
2022-09-01T10:48:46.283Z,31.72
2022-09-01T10:51:19.293Z,31.16
2022-09-01T10:53:55.220Z,30.66
2022-09-01T10:56:35.442Z,29.70
2022-09-01T11:02:22.641Z,30.40
2022-09-01T11:04:40.937Z,31.24
2022-09-01T11:07:38.878Z,31.90
2022-09-01T11:10:32.710Z,32.12
2022-09-01T11:13:31.648Z,32.07
2022-09-01T11:19:33.078Z,31.46
2022-09-01T11:22:14.012Z,31.88
2022-09-01T11:24:41.175Z,32.22
2022-09-01T11:27:12.139Z,32.70
2022-09-01T11:30:15.920Z,33.02
2022-09-01T11:32:47.037Z,33.05
2022-09-01T11:35:26.656Z,32.97
2022-09-01T11:38:02.064Z,32.47
2022-09-01T11:40:32.495Z,32.57
2022-09-01T11:43:04.461Z,33.04
2022-09-01T11:45:33.732Z,32.65
2022-09-01T11:48:09.432Z,31.74
2022-09-01T11:50:38.424Z,31.66
2022-09-01T11:53:12.051Z,31.86
2022-09-01T11:55:44.533Z,31.33
2022-09-01T11:58:31.721Z,30.32
2022-09-01T12:01:15.713Z,30.17
2022-09-01T12:03:42.978Z,29.88
2022-09-01T12:06:12.687Z,29.54
2022-09-01T12:08:43.232Z,29.51
2022-09-01T12:11:12.838Z,30.13
2022-09-01T12:13:40.972Z,30.72
2022-09-01T12:16:18.902Z,30.76
2022-09-01T12:18:48.696Z,29.98
2022-09-01T12:21:23.942Z,28.88
2022-09-01T12:23:50.666Z,28.39
2022-09-01T12:26:24.893Z,28.68
2022-09-01T12:28:53.008Z,28.86
2022-09-01T12:31:23.664Z,28.39
2022-09-01T12:33:52.088Z,28.12
2022-09-01T12:36:28.839Z,28.38
2022-09-01T12:39:16.534Z,29.13
2022-09-01T12:41:45.309Z,29.70
2022-09-01T12:44:34.536Z,29.91
2022-09-01T12:47:10.499Z,30.04
2022-09-01T12:49:47.937Z,29.78
2022-09-01T12:52:25.786Z,29.73
2022-09-01T12:55:47.382Z,29.44
2022-09-01T12:58:09.050Z,28.84
2022-09-01T13:00:53.629Z,28.37
2022-09-01T13:03:21.491Z,28.05
2022-09-01T13:05:54.158Z,27.61
2022-09-01T13:08:26.908Z,27.51
2022-09-01T13:11:01.121Z,27.42
2022-09-01T13:13:27.908Z,27.36
2022-09-01T13:16:01.374Z,27.35
2022-09-01T13:18:29.070Z,27.27
2022-09-01T13:20:56.950Z,27.50
2022-09-01T13:23:23.614Z,27.46
2022-09-01T13:25:50.372Z,27.24
2022-09-01T13:28:17.437Z,26.74
2022-09-01T13:30:48.489Z,26.73
2022-09-01T13:33:20.095Z,27.14
2022-09-01T13:35:48.339Z,27.51
2022-09-01T13:38:16.572Z,28.07
2022-09-01T13:40:46.294Z,28.34
2022-09-01T13:43:15.187Z,28.71
2022-09-01T13:45:42.013Z,28.83
2022-09-01T13:48:17.229Z,28.97
2022-09-01T13:53:33.384Z,28.10
2022-09-01T13:55:59.876Z,27.55
2022-09-01T13:58:26.308Z,27.21
2022-09-01T14:00:52.767Z,26.74
2022-09-01T14:03:22.925Z,26.45
2022-09-01T14:05:50.452Z,26.46
2022-09-01T14:08:19.643Z,26.55
2022-09-01T14:10:50.666Z,26.54
2022-09-01T14:13:18.578Z,26.72
2022-09-01T14:15:46.821Z,26.94
2022-09-01T14:18:14.920Z,27.19
2022-09-01T14:20:44.588Z,27.63
2022-09-01T14:23:13.179Z,28.03
2022-09-01T14:25:47.049Z,28.31
2022-09-01T14:28:14.628Z,28.44
2022-09-01T14:30:43.364Z,28.59
2022-09-01T14:33:10.758Z,28.76
2022-09-01T14:35:41.532Z,28.83
2022-09-01T14:38:08.761Z,28.82
2022-09-01T14:40:40.007Z,28.72
2022-09-01T14:43:14.204Z,28.71
2022-09-01T14:45:44.419Z,28.72
2022-09-01T14:48:10.785Z,28.56
2022-09-01T14:50:40.849Z,28.30
2022-09-01T14:53:07.654Z,28.08
2022-09-01T14:55:33.995Z,28.21
2022-09-01T14:58:00.770Z,28.16
2022-09-01T15:00:28.394Z,28.29
2022-09-01T15:02:55.082Z,28.39
2022-09-01T15:05:22.150Z,28.25
2022-09-01T15:07:48.861Z,28.00
2022-09-01T15:10:24.459Z,27.80
2022-09-01T15:12:51.776Z,27.55
2022-09-01T15:15:18.604Z,27.52
2022-09-01T15:17:46.517Z,27.62
2022-09-01T15:20:32.106Z,27.56
2022-09-01T15:22:58.630Z,27.42
2022-09-01T15:25:25.590Z,27.22
2022-09-01T15:27:52.124Z,27.02
2022-09-01T15:30:20.230Z,26.89
2022-09-01T15:32:50.094Z,26.78
2022-09-01T15:35:17.241Z,26.67
2022-09-01T15:37:46.567Z,26.65
2022-09-01T15:40:12.989Z,26.58
2022-09-01T15:42:39.599Z,26.50
2022-09-01T15:45:09.373Z,26.48
2022-09-01T15:47:36.001Z,26.35
2022-09-01T15:50:07.536Z,26.18
2022-09-01T15:52:34.681Z,26.02
2022-09-01T15:55:02.442Z,25.84
2022-09-01T15:57:28.812Z,25.71
2022-09-01T15:59:55.261Z,25.56
2022-09-01T16:02:23.744Z,25.44
2022-09-01T16:04:50.139Z,25.35
2022-09-01T16:07:16.689Z,25.26
2022-09-01T16:09:43.097Z,25.11
2022-09-01T16:12:09.681Z,25.02
2022-09-01T16:14:36.057Z,24.98
2022-09-01T16:17:10.856Z,24.90
2022-09-01T16:19:59.809Z,24.88
2022-09-01T16:22:29.890Z,24.88
2022-09-01T16:25:00.731Z,24.86
2022-09-01T16:27:41.883Z,24.87
2022-09-01T16:30:14.142Z,24.82
2022-09-01T16:32:45.123Z,24.82
2022-09-01T16:35:12.896Z,24.77
2022-09-01T16:37:56.889Z,24.82
2022-09-01T16:40:56.294Z,24.86
2022-09-01T16:43:40.425Z,24.88
2022-09-01T16:46:20.779Z,24.84
2022-09-01T16:49:14.917Z,24.85
2022-09-01T16:52:06.617Z,24.88
2022-09-01T16:54:55.008Z,24.85
2022-09-01T16:57:53.363Z,24.67
2022-09-01T17:00:30.840Z,24.70
2022-09-01T17:03:19.670Z,24.60
2022-09-01T17:06:01.736Z,24.50
2022-09-01T17:08:34.232Z,24.40
2022-09-01T17:11:10.308Z,24.23
2022-09-01T17:13:44.784Z,24.10
2022-09-01T17:16:42.077Z,23.94
2022-09-01T17:19:17.853Z,23.78
2022-09-01T17:21:52.873Z,23.68
2022-09-01T17:24:40.372Z,23.51
2022-09-01T17:27:14.231Z,23.39
2022-09-01T17:29:46.927Z,23.30
2022-09-01T17:32:31.998Z,23.15
2022-09-01T17:35:07.564Z,22.98
2022-09-01T17:37:52.974Z,22.88
2022-09-01T17:40:26.506Z,22.80
2022-09-01T17:43:01.029Z,22.70
2022-09-01T17:45:47.631Z,22.58
2022-09-01T17:48:20.705Z,22.48
2022-09-01T17:51:08.550Z,22.16
2022-09-01T17:53:56.237Z,22.19
2022-09-01T17:56:43.805Z,22.05
2022-09-01T17:59:22.389Z,21.84
2022-09-01T18:02:00.279Z,21.81
2022-09-01T18:04:46.602Z,21.70
2022-09-01T18:07:37.815Z,21.56
2022-09-01T18:10:07.680Z,21.48
2022-09-01T18:12:39.173Z,21.37
2022-09-01T18:15:19.866Z,21.26
2022-09-01T18:18:00.109Z,21.13
2022-09-01T18:20:38.884Z,21.07
2022-09-01T18:23:12.501Z,20.97
2022-09-01T18:25:49.468Z,20.82
2022-09-01T18:28:16.662Z,20.80
2022-09-01T18:30:53.253Z,20.71
2022-09-01T18:33:38.237Z,20.60
2022-09-01T18:36:26.713Z,20.50
2022-09-01T18:39:01.965Z,20.38
2022-09-01T18:41:43.498Z,20.33
2022-09-01T18:44:42.275Z,20.29
2022-09-01T18:47:11.931Z,20.27
2022-09-01T18:50:04.631Z,20.21
2022-09-01T18:52:59.560Z,20.19
2022-09-01T18:55:53.964Z,20.17
2022-09-01T18:58:42.218Z,20.17
2022-09-01T19:01:22.087Z,20.09
2022-09-01T19:04:06.975Z,19.98
2022-09-01T19:06:50.694Z,20.05
2022-09-01T19:09:33.692Z,19.95
2022-09-01T19:12:35.836Z,19.82
2022-09-01T19:15:16.821Z,19.74
2022-09-01T19:17:43.402Z,19.65
2022-09-01T19:20:41.961Z,19.60
2022-09-01T19:23:16.828Z,19.59
2022-09-01T19:25:43.607Z,19.55
2022-09-01T19:28:20.041Z,19.49
2022-09-01T19:30:52.571Z,19.42
2022-09-01T19:33:25.070Z,19.37
2022-09-01T19:35:56.306Z,19.36
2022-09-01T19:38:27.721Z,19.23
2022-09-01T19:41:08.327Z,19.36
2022-09-01T19:43:37.165Z,19.38
2022-09-01T19:46:29.508Z,19.33
2022-09-01T19:49:10.207Z,19.25
2022-09-01T19:51:49.007Z,19.20
2022-09-01T19:54:44.558Z,19.14
2022-09-01T19:57:15.776Z,19.10
2022-09-01T20:00:09.227Z,19.06
2022-09-01T20:02:42.982Z,19.02
2022-09-01T20:05:16.839Z,18.99
2022-09-01T20:07:49.389Z,19.00
2022-09-01T20:10:55.316Z,18.92
2022-09-01T20:13:46.017Z,18.94
2022-09-01T20:16:38.402Z,18.92
2022-09-01T20:19:13.689Z,18.88
2022-09-01T20:21:44.597Z,18.83
2022-09-01T20:24:16.774Z,18.85
2022-09-01T20:27:14.642Z,18.91
2022-09-01T20:29:49.733Z,18.91
2022-09-01T20:32:27.433Z,18.97
2022-09-01T20:34:58.651Z,18.95
2022-09-01T20:37:39.604Z,18.99
2022-09-01T20:40:24.464Z,19.02
2022-09-01T20:43:06.505Z,19.04
2022-09-01T20:45:32.965Z,19.04
2022-09-01T20:48:12.853Z,19.07
2022-09-01T20:50:59.896Z,19.08
2022-09-01T20:53:49.325Z,19.04
2022-09-01T20:56:31.632Z,18.87
2022-09-01T20:59:09.650Z,18.93
2022-09-01T21:01:52.166Z,18.97
2022-09-01T21:04:45.769Z,18.93
2022-09-01T21:07:18.097Z,18.97
2022-09-01T21:10:09.470Z,18.99
2022-09-01T21:12:51.508Z,18.98
2022-09-01T21:15:42.693Z,18.96
2022-09-01T21:18:23.824Z,18.92
2022-09-01T21:20:53.069Z,18.90
2022-09-01T21:23:20.695Z,18.84
2022-09-01T21:25:48.214Z,18.80
2022-09-01T21:28:19.514Z,18.68
2022-09-01T21:30:54.255Z,18.79
2022-09-01T21:33:21.987Z,18.74
2022-09-01T21:35:48.570Z,18.73
2022-09-01T21:38:15.066Z,18.70
2022-09-01T21:40:42.293Z,18.66
2022-09-01T21:43:18.448Z,18.61
2022-09-01T21:45:45.839Z,18.58
2022-09-01T21:48:12.745Z,18.54
2022-09-01T21:50:40.499Z,18.55
2022-09-01T21:53:08.704Z,18.52
2022-09-01T21:55:36.633Z,18.53
2022-09-01T21:58:03.529Z,18.53
2022-09-01T22:00:33.192Z,18.57
2022-09-01T22:03:01.620Z,18.47
2022-09-01T22:05:29.597Z,18.51
2022-09-01T22:07:58.394Z,18.51
2022-09-01T22:10:28.045Z,18.50
2022-09-01T22:12:56.137Z,18.47
2022-09-01T22:15:25.494Z,18.43
2022-09-01T22:17:53.346Z,18.45
2022-09-01T22:20:25.450Z,18.44
2022-09-01T22:22:51.933Z,18.41
2022-09-01T22:25:21.155Z,18.37
2022-09-01T22:27:47.665Z,18.35
2022-09-01T22:30:14.222Z,18.29
2022-09-01T22:32:45.194Z,18.31
2022-09-01T22:35:12.870Z,18.31
2022-09-01T22:37:39.679Z,18.27
2022-09-01T22:40:07.157Z,18.28
2022-09-01T22:42:35.100Z,18.23
2022-09-01T22:45:02.019Z,18.28
2022-09-01T22:47:28.402Z,18.24
2022-09-01T22:49:55.093Z,18.22
2022-09-01T22:52:21.642Z,18.19
2022-09-01T22:54:48.954Z,18.19
2022-09-01T22:57:15.323Z,18.18
2022-09-01T22:59:44.736Z,18.16
2022-09-01T23:02:11.563Z,18.11
2022-09-01T23:04:38.884Z,18.13
2022-09-01T23:07:06.365Z,18.09
2022-09-01T23:09:33.154Z,18.13
2022-09-01T23:11:59.554Z,18.10
2022-09-01T23:14:26.405Z,18.08
2022-09-01T23:16:53.000Z,18.08
2022-09-01T23:19:21.222Z,18.02
2022-09-01T23:21:48.239Z,18.12
2022-09-01T23:24:15.357Z,18.07
2022-09-01T23:26:44.768Z,18.09
2022-09-01T23:29:11.780Z,18.06
2022-09-01T23:31:39.396Z,18.01
2022-09-01T23:34:07.984Z,17.98
2022-09-01T23:36:35.009Z,17.98
2022-09-01T23:39:01.950Z,17.98
2022-09-01T23:41:32.881Z,17.93
2022-09-01T23:44:03.325Z,17.90
2022-09-01T23:46:37.162Z,17.89
2022-09-01T23:49:04.289Z,17.90
2022-09-01T23:51:30.799Z,17.88
2022-09-01T23:53:57.409Z,17.72
2022-09-01T23:56:26.630Z,17.85
2022-09-01T23:58:53.655Z,17.78
